Terminal Aerodrome Forecast
Issued by NWS Cleveland, OH

Home | Current Version | Previous Version | Text Only | Print | Product List | Glossary On
Versions: 1 2 3 4 5 6 7 8 9 10 11 12 13 14 15 16 17 18 19
000
FTUS41 KCLE 012136 AAA
TAFERI
TAF AMD
KERI 012136Z 0122/0218 07007KT P6SM VCSH SCT025 BKN035
      TEMPO 0123/0201 4SM -RA BKN025
     FM020200 17004KT P6SM VCSH BKN050
     FM020600 18004KT 6SM -SHRA OVC025
     FM021100 18004KT 5SM BR SCT015
     FM021400 22006KT P6SM BKN015=

USA.gov is the U.S. government's official web portal to all federal, state and local government web resources and services.